createdAt,value
2019-01-04T00:04:03.932Z,99705.10
2019-01-04T00:06:30.201Z,99708.33
2019-01-04T00:08:56.450Z,99718.35
2019-01-04T00:11:22.626Z,99713.61
2019-01-04T00:13:48.789Z,99727.71
2019-01-04T00:16:14.936Z,99727.93
2019-01-04T00:18:41.161Z,99731.37
2019-01-04T00:21:07.277Z,99733.17
2019-01-04T00:23:33.430Z,99731.14
2019-01-04T00:25:59.735Z,99735.70
2019-01-04T00:28:25.893Z,99736.95
2019-01-04T00:30:52.044Z,99735.49
2019-01-04T00:33:18.247Z,99739.89
2019-01-04T00:35:44.403Z,99743.95
2019-01-04T00:38:10.558Z,99742.05
2019-01-04T00:40:36.740Z,99742.13
2019-01-04T00:43:15.955Z,99744.86
2019-01-04T00:45:42.255Z,99747.97
2019-01-04T00:48:08.509Z,99749.81
2019-01-04T00:50:34.671Z,99754.09
2019-01-04T00:53:00.862Z,99756.42
2019-01-04T00:59:20.129Z,99749.47
2019-01-04T01:02:25.797Z,99756.05
2019-01-04T01:05:31.688Z,99750.15
2019-01-04T01:08:37.354Z,99757.68
2019-01-04T01:11:43.036Z,99763.67
2019-01-04T01:14:48.702Z,99767.79
2019-01-04T01:17:54.391Z,99766.72
2019-01-04T01:21:00.040Z,99768.53
2019-01-04T01:24:07.641Z,99764.72
2019-01-04T01:27:13.301Z,99762.92
2019-01-04T01:30:18.994Z,99774.41
2019-01-04T01:39:38.960Z,99774.80
2019-01-04T01:42:44.621Z,99769.86
2019-01-04T01:45:50.315Z,99770.33
2019-01-04T01:48:36.323Z,99771.45
2019-01-04T01:51:42.019Z,99760.38
2019-01-04T01:54:27.920Z,99760.91
2019-01-04T01:56:54.136Z,99754.34
2019-01-04T01:59:40.152Z,99758.48
2019-01-04T02:02:26.184Z,99758.92
2019-01-04T02:04:52.342Z,99756.22
2019-01-04T02:07:38.281Z,99755.52
2019-01-04T02:13:25.352Z,99764.97
2019-01-04T02:15:51.518Z,99754.03
2019-01-04T02:18:37.565Z,99757.31
2019-01-04T02:21:23.478Z,99757.08
2019-01-04T02:24:09.408Z,99754.69
2019-01-04T02:26:55.315Z,99753.72
2019-01-04T02:29:41.272Z,99764.66
2019-01-04T02:32:07.433Z,99764.69
2019-01-04T02:34:53.376Z,99759.71
2019-01-04T02:37:19.540Z,99757.60
2019-01-04T02:40:05.479Z,99755.54
2019-01-04T02:42:51.383Z,99757.79
2019-01-04T02:45:37.489Z,99756.61
2019-01-04T02:48:03.684Z,99755.64
2019-01-04T02:50:49.618Z,99758.48
2019-01-04T02:53:35.627Z,99768.39
2019-01-04T02:56:21.568Z,99764.58
2019-01-04T02:59:07.714Z,99772.64
2019-01-04T03:01:33.907Z,99770.08
2019-01-04T03:04:00.109Z,99780.27
2019-01-04T03:06:46.169Z,99787.02
2019-01-04T03:09:32.070Z,99791.12
2019-01-04T03:12:18.015Z,99786.87
2019-01-04T03:15:04.037Z,99799.59
2019-01-04T03:17:50.084Z,99801.70
2019-01-04T03:20:35.993Z,99803.40
2019-01-04T03:23:22.033Z,99813.20
2019-01-04T03:26:07.945Z,99815.14
2019-01-04T03:28:53.895Z,99819.04
2019-01-04T03:31:39.802Z,99823.63
2019-01-04T03:34:25.759Z,99821.36
2019-01-04T03:36:51.915Z,99818.48
2019-01-04T03:39:37.960Z,99826.36
2019-01-04T03:42:23.877Z,99838.70
2019-01-04T03:44:50.068Z,99842.30
2019-01-04T03:47:29.062Z,99842.80
2019-01-04T03:50:15.019Z,99848.57
2019-01-04T03:55:33.658Z,99854.33
2019-01-04T03:58:19.663Z,99856.55
2019-01-04T04:01:05.741Z,99855.92
2019-01-04T04:03:51.657Z,99855.98
2019-01-04T04:06:37.601Z,99858.30
2019-01-04T04:15:16.585Z,99861.07
2019-01-04T04:18:02.588Z,99862.44
2019-01-04T04:20:48.530Z,99872.36
2019-01-04T04:23:34.443Z,99874.28
2019-01-04T04:26:00.628Z,99874.84
2019-01-04T04:28:46.665Z,99874.33
2019-01-04T04:31:32.711Z,99879.13
2019-01-04T04:36:50.971Z,99884.86
2019-01-04T04:39:36.975Z,99888.93
2019-01-04T04:42:23.019Z,99890.81
2019-01-04T04:47:41.290Z,99905.19
2019-01-04T04:50:07.441Z,99907.26
2019-01-04T04:52:53.492Z,99910.95
2019-01-04T04:55:39.504Z,99910.39
2019-01-04T04:58:25.554Z,99911.19
2019-01-04T05:00:51.810Z,99904.52
2019-01-04T05:03:37.845Z,99910.87
2019-01-04T05:06:23.881Z,99922.36
2019-01-04T05:09:09.934Z,99921.02
2019-01-04T05:11:55.833Z,99922.84
2019-01-04T05:14:41.777Z,99932.64
2019-01-04T05:22:51.714Z,99948.06
2019-01-04T05:25:17.877Z,99952.94
2019-01-04T05:28:03.962Z,99956.41
2019-01-04T05:30:30.118Z,99962.09
2019-01-04T05:33:16.057Z,99961.39
2019-01-04T05:35:42.213Z,99971.88
2019-01-04T05:38:28.167Z,99979.60
2019-01-04T05:41:14.094Z,99991.89
2019-01-04T05:43:40.285Z,99991.08
2019-01-04T05:46:26.207Z,99997.62
2019-01-04T05:49:12.258Z,100001.95
2019-01-04T05:54:49.936Z,100012.39
2019-01-04T05:57:36.122Z,100024.98
2019-01-04T06:03:23.195Z,100031.22
2019-01-04T06:06:09.188Z,100044.72
2019-01-04T06:08:55.117Z,100049.80
2019-01-04T06:11:41.149Z,100046.86
2019-01-04T06:14:27.198Z,100057.69
2019-01-04T06:17:13.108Z,100062.26
2019-01-04T06:19:59.162Z,100068.77
2019-01-04T06:22:45.092Z,100080.61
2019-01-04T06:25:31.138Z,100082.84
2019-01-04T06:28:17.922Z,100092.99
2019-01-04T06:31:03.866Z,100097.02
2019-01-04T06:33:49.778Z,100110.36
2019-01-04T06:36:35.866Z,100116.73
2019-01-04T06:39:21.791Z,100115.12
2019-01-04T06:42:07.862Z,100128.63
2019-01-04T06:47:26.841Z,100150.12
2019-01-04T06:50:12.809Z,100148.75
2019-01-04T06:52:58.760Z,100156.55
2019-01-04T06:55:45.667Z,100161.16
2019-01-04T06:58:31.650Z,100171.30
2019-01-04T07:01:17.653Z,100175.36
2019-01-04T07:04:03.593Z,100179.27
2019-01-04T07:06:49.604Z,100185.83
2019-01-04T07:09:35.533Z,100193.77
2019-01-04T07:12:21.470Z,100209.56
2019-01-04T07:15:07.512Z,100224.22
2019-01-04T07:17:53.425Z,100226.98
2019-01-04T07:20:39.466Z,100225.09
2019-01-04T07:23:25.376Z,100233.34
2019-01-04T07:26:11.429Z,100231.62
2019-01-04T07:28:57.331Z,100228.63
2019-01-04T07:31:43.378Z,100236.82
2019-01-04T07:34:29.288Z,100241.45
2019-01-04T07:37:15.226Z,100245.23
2019-01-04T07:39:41.395Z,100252.13
2019-01-04T07:42:07.550Z,100259.23
2019-01-04T07:44:53.594Z,100260.27
2019-01-04T07:47:19.762Z,100256.64
2019-01-04T07:49:45.912Z,100258.72
2019-01-04T07:52:12.179Z,100268.45
2019-01-04T07:54:38.437Z,100267.61
2019-01-04T07:57:04.606Z,100277.44
2019-01-04T07:59:30.802Z,100273.06
2019-01-04T08:01:56.951Z,100275.89
2019-01-04T08:04:23.108Z,100274.31
2019-01-04T08:06:49.408Z,100276.33
2019-01-04T08:09:15.566Z,100276.98
2019-01-04T08:11:41.719Z,100282.44
2019-01-04T08:14:07.913Z,100283.42
2019-01-04T08:16:34.076Z,100287.28
2019-01-04T08:19:00.238Z,100286.95
2019-01-04T08:21:26.427Z,100284.45
2019-01-04T08:23:52.577Z,100288.08
2019-01-04T08:26:18.836Z,100292.50
2019-01-04T08:28:45.025Z,100289.44
2019-01-04T08:31:11.183Z,100285.18
2019-01-04T08:33:37.335Z,100293.05
2019-01-04T08:36:03.522Z,100289.88
2019-01-04T08:38:29.687Z,100292.44
2019-01-04T08:40:55.840Z,100292.96
2019-01-04T08:43:22.128Z,100300.63
2019-01-04T08:45:48.398Z,100305.27
2019-01-04T08:48:14.564Z,100304.42
2019-01-04T08:50:40.766Z,100301.84
2019-01-04T08:53:06.928Z,100300.84
2019-01-04T08:55:33.196Z,100296.41
2019-01-04T08:57:59.391Z,100303.06
2019-01-04T09:00:25.543Z,100305.84
2019-01-04T09:02:52.610Z,100306.03
2019-01-04T09:05:39.657Z,100309.47
2019-01-04T09:08:25.563Z,100304.83
2019-01-04T09:11:11.510Z,100316.91
2019-01-04T09:16:30.098Z,100316.18
2019-01-04T09:18:56.349Z,100309.67
2019-01-04T09:21:22.502Z,100306.62
2019-01-04T09:23:48.683Z,100310.44
2019-01-04T09:26:14.851Z,100310.90
2019-01-04T09:28:41.017Z,100308.02
2019-01-04T09:31:07.199Z,100301.69
2019-01-04T09:33:33.347Z,100299.59
2019-01-04T09:35:59.500Z,100305.47
2019-01-04T09:38:25.796Z,100307.20
2019-01-04T09:41:33.361Z,100295.66
2019-01-04T09:44:40.992Z,100290.59
2019-01-04T09:47:07.161Z,100287.69
2019-01-04T09:49:33.312Z,100290.97
2019-01-04T09:51:59.607Z,100282.89
2019-01-04T09:54:25.992Z,100280.22
2019-01-04T09:56:52.153Z,100273.44
2019-01-04T09:59:18.371Z,100275.48
2019-01-04T10:01:44.523Z,100274.92
2019-01-04T10:04:10.785Z,100281.06
2019-01-04T10:06:36.975Z,100288.18
2019-01-04T10:12:16.540Z,100292.89
2019-01-04T10:14:42.694Z,100294.42
2019-01-04T10:17:08.884Z,100291.48
2019-01-04T10:19:35.080Z,100297.20
2019-01-04T10:22:01.351Z,100303.38
2019-01-04T10:24:27.521Z,100302.55
2019-01-04T10:26:53.714Z,100303.35
2019-01-04T10:29:19.885Z,100302.84
2019-01-04T10:31:46.044Z,100304.66
2019-01-04T10:34:12.237Z,100313.16
2019-01-04T10:36:38.414Z,100308.22
2019-01-04T10:39:46.033Z,100317.30
2019-01-04T10:42:12.190Z,100312.88
2019-01-04T10:44:38.355Z,100309.63
2019-01-04T10:47:05.059Z,100307.70
2019-01-04T10:49:31.215Z,100295.77
2019-01-04T10:51:57.369Z,100304.45
2019-01-04T10:54:23.552Z,100303.78
2019-01-04T10:56:49.712Z,100291.90
2019-01-04T10:59:15.975Z,100301.42
2019-01-04T11:01:42.159Z,100296.08
2019-01-04T11:04:08.323Z,100295.21
2019-01-04T11:06:34.590Z,100304.41
2019-01-04T11:09:00.796Z,100303.41
2019-01-04T11:11:27.106Z,100314.52
2019-01-04T11:13:53.257Z,100319.42
2019-01-04T11:16:19.444Z,100325.45
2019-01-04T11:18:45.658Z,100325.07
2019-01-04T11:21:11.815Z,100318.85
2019-01-04T11:24:17.639Z,100314.63
2019-01-04T11:27:03.558Z,100307.93
2019-01-04T11:30:11.197Z,100314.45
2019-01-04T11:32:57.907Z,100315.44
2019-01-04T11:36:05.513Z,100315.45
2019-01-04T11:42:24.705Z,100316.16
2019-01-04T11:45:30.495Z,100325.09
2019-01-04T11:48:38.162Z,100312.60
2019-01-04T11:51:43.789Z,100309.38
2019-01-04T11:54:09.970Z,100315.52
2019-01-04T11:56:36.130Z,100310.88
2019-01-04T11:59:02.351Z,100305.55
2019-01-04T12:01:28.640Z,100312.00
2019-01-04T12:09:47.851Z,100313.00
2019-01-04T12:12:14.134Z,100316.59
2019-01-04T12:14:41.502Z,100320.42
2019-01-04T12:17:08.492Z,100326.05
2019-01-04T12:19:34.650Z,100334.18
2019-01-04T12:22:42.270Z,100339.93
2019-01-04T12:25:08.457Z,100340.08
2019-01-04T12:28:05.137Z,100336.50
2019-01-04T12:30:44.332Z,100339.53
2019-01-04T12:33:10.495Z,100348.29
2019-01-04T12:35:36.659Z,100350.51
2019-01-04T12:38:03.100Z,100350.70
2019-01-04T12:40:29.246Z,100364.84
2019-01-04T12:42:55.405Z,100358.01
2019-01-04T12:45:21.596Z,100356.39
2019-01-04T12:47:47.882Z,100359.54
2019-01-04T12:50:14.027Z,100359.39
2019-01-04T12:52:40.209Z,100360.13
2019-01-04T12:55:06.371Z,100357.82
2019-01-04T12:57:32.645Z,100362.13
2019-01-04T13:00:12.537Z,100362.63
2019-01-04T13:02:38.701Z,100362.59
2019-01-04T13:05:04.972Z,100359.81
2019-01-04T13:07:31.168Z,100365.01
2019-01-04T13:09:57.426Z,100360.89
2019-01-04T13:12:23.689Z,100362.50
2019-01-04T13:14:49.899Z,100375.60
2019-01-04T13:17:16.104Z,100369.55
2019-01-04T13:19:42.607Z,100377.11
2019-01-04T13:22:08.932Z,100380.56
2019-01-04T13:24:42.381Z,100394.91
2019-01-04T13:27:08.537Z,100396.25
2019-01-04T13:29:34.913Z,100395.95
2019-01-04T13:32:01.078Z,100402.72
2019-01-04T13:34:27.379Z,100405.06
2019-01-04T13:36:53.567Z,100404.06
2019-01-04T13:39:19.730Z,100412.94
2019-01-04T13:41:46.020Z,100406.02
2019-01-04T13:44:14.732Z,100406.31
2019-01-04T13:46:40.886Z,100407.08
2019-01-04T13:49:07.043Z,100406.63
2019-01-04T13:51:33.334Z,100415.12
2019-01-04T13:53:59.564Z,100415.17
2019-01-04T13:56:25.756Z,100415.19
2019-01-04T13:58:51.944Z,100421.62
2019-01-04T14:01:31.344Z,100417.04
2019-01-04T14:03:57.633Z,100418.86
2019-01-04T14:06:23.902Z,100421.02
2019-01-04T14:08:50.078Z,100425.67
2019-01-04T14:11:16.268Z,100423.91
2019-01-04T14:13:42.434Z,100427.44
2019-01-04T14:16:08.695Z,100432.78
2019-01-04T14:18:34.877Z,100430.05
2019-01-04T14:21:01.099Z,100434.45
2019-01-04T14:23:28.950Z,100434.50
2019-01-04T14:25:55.450Z,100426.73
2019-01-04T14:28:22.013Z,100432.70
2019-01-04T14:33:35.971Z,100434.03
2019-01-04T14:36:02.369Z,100436.64
2019-01-04T14:38:28.527Z,100432.39
2019-01-04T14:40:54.831Z,100443.46
2019-01-04T14:43:21.092Z,100439.22
2019-01-04T14:45:47.251Z,100445.81
2019-01-04T14:48:13.456Z,100452.50
2019-01-04T14:50:39.713Z,100452.32
2019-01-04T14:53:06.939Z,100452.88
2019-01-04T14:55:33.988Z,100455.39
2019-01-04T14:58:00.144Z,100453.14
2019-01-04T15:00:26.470Z,100452.02
2019-01-04T15:02:52.770Z,100456.91
2019-01-04T15:05:18.922Z,100452.11
2019-01-04T15:10:37.497Z,100460.59
2019-01-04T15:13:03.647Z,100464.88
2019-01-04T15:15:29.809Z,100461.45
2019-01-04T15:17:55.987Z,100464.36
2019-01-04T15:20:22.246Z,100469.84
2019-01-04T15:22:48.404Z,100477.37
2019-01-04T15:25:14.594Z,100478.57
2019-01-04T15:27:40.981Z,100479.05
2019-01-04T15:30:48.556Z,100476.92
2019-01-04T15:33:14.715Z,100472.28
2019-01-04T15:35:40.870Z,100476.59
2019-01-04T15:38:07.059Z,100477.45
2019-01-04T15:40:33.241Z,100477.59
2019-01-04T15:42:59.505Z,100479.36
2019-01-04T15:48:19.793Z,100479.38
2019-01-04T15:50:46.059Z,100481.49
2019-01-04T15:53:12.362Z,100481.56
2019-01-04T15:55:38.560Z,100478.91
2019-01-04T15:58:04.840Z,100471.34
2019-01-04T16:00:30.991Z,100474.92
2019-01-04T16:02:57.336Z,100476.25
2019-01-04T16:05:23.578Z,100478.37
2019-01-04T16:07:49.742Z,100488.39
2019-01-04T16:10:16.045Z,100480.63
2019-01-04T16:12:42.303Z,100478.09
2019-01-04T16:15:49.896Z,100483.67
2019-01-04T16:18:16.150Z,100482.23
2019-01-04T16:20:42.310Z,100487.66
2019-01-04T16:23:08.505Z,100488.04
2019-01-04T16:25:34.671Z,100484.86
2019-01-04T16:28:00.964Z,100491.33
2019-01-04T16:30:27.163Z,100492.77
2019-01-04T16:32:53.420Z,100502.86
2019-01-04T16:35:19.589Z,100502.08
2019-01-04T16:37:45.781Z,100503.06
2019-01-04T16:40:12.042Z,100507.66
2019-01-04T16:42:38.204Z,100504.01
2019-01-04T16:45:45.831Z,100511.49
2019-01-04T16:48:11.992Z,100510.02
2019-01-04T16:51:19.697Z,100512.88
2019-01-04T16:53:45.851Z,100514.52
2019-01-04T16:56:12.010Z,100512.89
2019-01-04T16:58:38.202Z,100516.39
2019-01-04T17:01:04.457Z,100511.76
2019-01-04T17:03:30.665Z,100514.27
2019-01-04T17:05:56.884Z,100514.55
2019-01-04T17:08:23.145Z,100511.95
2019-01-04T17:10:49.299Z,100510.44
2019-01-04T17:13:15.484Z,100507.30
2019-01-04T17:15:41.758Z,100508.72
2019-01-04T17:18:07.911Z,100512.16
2019-01-04T17:20:34.152Z,100515.95
2019-01-04T17:23:00.314Z,100510.63
2019-01-04T17:25:26.567Z,100512.88
2019-01-04T17:27:52.882Z,100515.14
2019-01-04T17:30:19.037Z,100513.81
2019-01-04T17:32:45.187Z,100512.81
2019-01-04T17:35:11.381Z,100514.56
2019-01-04T17:37:37.551Z,100518.40
2019-01-04T17:40:45.152Z,100512.49
2019-01-04T17:43:11.322Z,100516.89
2019-01-04T17:45:37.471Z,100510.83
2019-01-04T17:48:03.669Z,100501.87
2019-01-04T17:50:29.837Z,100505.73
2019-01-04T17:52:55.982Z,100509.85
2019-01-04T17:55:22.288Z,100511.84
2019-01-04T17:57:48.452Z,100498.42
2019-01-04T18:00:14.814Z,100504.03
2019-01-04T18:02:40.988Z,100504.90
2019-01-04T18:05:07.194Z,100499.03
2019-01-04T18:07:33.383Z,100498.30
2019-01-04T18:13:20.010Z,100503.17
2019-01-04T18:15:46.161Z,100505.57
2019-01-04T18:18:12.422Z,100500.45
2019-01-04T18:20:38.835Z,100500.23
2019-01-04T18:23:04.961Z,100498.45
2019-01-04T18:25:31.111Z,100504.72
2019-01-04T18:27:57.429Z,100504.28
2019-01-04T18:30:23.631Z,100504.43
2019-01-04T18:32:49.818Z,100504.84
2019-01-04T18:35:15.974Z,100504.05
2019-01-04T18:37:42.258Z,100505.40
2019-01-04T18:41:03.640Z,100505.28
2019-01-04T18:43:17.935Z,100501.63
2019-01-04T18:46:11.589Z,100505.35
2019-01-04T18:51:51.693Z,100503.81
2019-01-04T18:54:37.844Z,100506.48
2019-01-04T18:57:13.230Z,100513.13
2019-01-04T18:59:59.149Z,100511.08
2019-01-04T19:02:45.231Z,100507.82
2019-01-04T19:05:25.730Z,100511.20
2019-01-04T19:07:51.965Z,100506.58
2019-01-04T19:10:18.273Z,100506.56
2019-01-04T19:15:32.266Z,100516.36
2019-01-04T19:17:58.412Z,100520.26
2019-01-04T19:20:24.571Z,100524.95
2019-01-04T19:22:50.756Z,100517.30
2019-01-04T19:25:16.933Z,100516.91
2019-01-04T19:27:43.087Z,100509.08
2019-01-04T19:30:09.275Z,100509.09
2019-01-04T19:32:35.527Z,100502.98
2019-01-04T19:35:01.690Z,100507.96
2019-01-04T19:37:27.886Z,100501.20
2019-01-04T19:39:54.047Z,100508.98
2019-01-04T19:42:29.502Z,100502.63
2019-01-04T19:44:55.748Z,100505.55
2019-01-04T19:50:29.505Z,100510.64
2019-01-04T19:52:55.747Z,100518.54
2019-01-04T19:55:21.956Z,100519.28
2019-01-04T19:57:48.162Z,100517.91
2019-01-04T20:00:14.412Z,100514.97
2019-01-04T20:02:40.570Z,100513.20
2019-01-04T20:05:06.864Z,100520.59
2019-01-04T20:14:16.307Z,100517.17
2019-01-04T20:25:43.633Z,100526.91
2019-01-04T20:28:25.516Z,100525.88
2019-01-04T20:33:45.510Z,100514.26
2019-01-04T20:36:31.534Z,100520.03
2019-01-04T20:39:17.581Z,100510.83
2019-01-04T20:42:03.598Z,100501.47
2019-01-04T20:44:49.645Z,100501.45
2019-01-04T20:47:35.661Z,100503.42
2019-01-04T20:52:59.304Z,100497.84
2019-01-04T20:55:45.311Z,100501.94
2019-01-04T20:58:31.369Z,100501.56
2019-01-04T21:01:17.405Z,100493.04
2019-01-04T21:04:03.570Z,100498.30
2019-01-04T21:06:49.710Z,100498.58
2019-01-04T21:14:48.927Z,100493.23
2019-01-04T21:17:34.936Z,100491.77
2019-01-04T21:20:21.010Z,100486.20
2019-01-04T21:25:54.654Z,100482.89
2019-01-04T21:28:40.662Z,100476.66
2019-01-04T21:31:27.668Z,100477.59
2019-01-04T21:34:13.682Z,100476.02
2019-01-04T21:36:59.730Z,100480.02
2019-01-04T21:39:45.744Z,100481.04
2019-01-04T21:45:05.938Z,100474.98
2019-01-04T21:47:51.952Z,100479.95
2019-01-04T21:50:38.003Z,100486.43
2019-01-04T21:53:24.023Z,100489.72
2019-01-04T21:59:05.456Z,100481.88
2019-01-04T22:04:39.089Z,100474.52
2019-01-04T22:07:25.100Z,100468.95
2019-01-04T22:10:11.261Z,100464.70
2019-01-04T22:12:57.283Z,100462.52
2019-01-04T22:15:43.337Z,100458.28
2019-01-04T22:18:29.344Z,100463.09
2019-01-04T22:21:15.412Z,100459.55
2019-01-04T22:24:01.422Z,100460.59
2019-01-04T22:26:47.470Z,100459.00
2019-01-04T22:29:33.502Z,100460.91
2019-01-04T22:32:19.553Z,100458.91
2019-01-04T22:35:05.591Z,100466.08
2019-01-04T22:40:25.918Z,100463.80
2019-01-04T22:43:11.928Z,100458.22
2019-01-04T22:45:57.972Z,100460.59
2019-01-04T22:48:43.990Z,100460.06
2019-01-04T22:56:43.786Z,100449.95
2019-01-04T22:59:29.794Z,100449.39
2019-01-04T23:02:15.846Z,100450.86
2019-01-04T23:05:01.859Z,100455.19
2019-01-04T23:15:50.692Z,100457.65
2019-01-04T23:18:36.702Z,100457.86
2019-01-04T23:22:02.248Z,100452.36
2019-01-04T23:24:48.262Z,100446.22
2019-01-04T23:27:34.301Z,100437.69
2019-01-04T23:30:20.321Z,100435.41
2019-01-04T23:33:06.370Z,100431.28
2019-01-04T23:35:52.377Z,100425.80
2019-01-04T23:41:16.060Z,100435.48
2019-01-04T23:44:02.068Z,100434.66
2019-01-04T23:46:48.108Z,100431.07
2019-01-04T23:49:34.113Z,100430.79
2019-01-04T23:52:20.166Z,100425.97
2019-01-04T23:55:06.183Z,100426.28
